createdAt,value
2023-03-12T00:01:22.859Z,7.29
2023-03-12T00:03:54.727Z,6.95
2023-03-12T00:06:28.184Z,6.34
2023-03-12T00:09:00.618Z,6.02
2023-03-12T00:11:33.801Z,6.65
2023-03-12T00:14:04.776Z,6.71
2023-03-12T00:16:35.629Z,6.78
2023-03-12T00:19:06.698Z,6.21
2023-03-12T00:21:37.422Z,6.94
2023-03-12T00:24:09.153Z,7.13
2023-03-12T00:26:40.174Z,6.22
2023-03-12T00:29:11.236Z,6.30
2023-03-12T00:31:42.092Z,7.25
2023-03-12T00:34:16.271Z,6.13
2023-03-12T00:36:47.000Z,5.57
2023-03-12T00:39:18.038Z,6.44
2023-03-12T00:41:48.564Z,6.47
2023-03-12T00:44:22.268Z,6.26
2023-03-12T00:46:54.597Z,6.28
2023-03-12T00:49:26.123Z,7.03
2023-03-12T00:51:57.198Z,6.47
2023-03-12T00:54:28.488Z,6.87
2023-03-12T00:57:02.298Z,6.87
2023-03-12T00:59:33.427Z,7.07
2023-03-12T01:02:04.872Z,6.99
2023-03-12T01:04:36.127Z,7.23
2023-03-12T01:07:06.898Z,6.12
2023-03-12T01:09:38.606Z,5.23
2023-03-12T01:12:10.205Z,5.82
2023-03-12T01:14:41.612Z,5.57
2023-03-12T01:17:12.964Z,5.57
2023-03-12T01:19:43.712Z,5.64
2023-03-12T01:22:14.715Z,6.08
2023-03-12T01:24:45.803Z,6.23
2023-03-12T01:27:16.442Z,6.01
2023-03-12T01:29:47.454Z,6.25
2023-03-12T01:32:18.493Z,6.08
2023-03-12T01:34:52.364Z,6.42
2023-03-12T01:37:23.272Z,6.47
2023-03-12T01:39:54.583Z,6.50
2023-03-12T01:42:25.417Z,6.08
2023-03-12T01:44:57.231Z,6.01
2023-03-12T01:47:28.836Z,6.48
2023-03-12T01:50:01.501Z,6.61
2023-03-12T01:52:34.423Z,6.24
2023-03-12T01:55:07.507Z,5.97
2023-03-12T01:57:42.340Z,5.90
2023-03-12T02:00:15.360Z,5.69
2023-03-12T02:02:47.857Z,5.68
2023-03-12T02:05:26.627Z,5.35
2023-03-12T02:07:57.872Z,5.80
2023-03-12T02:10:28.987Z,6.34
2023-03-12T02:12:59.810Z,6.54
2023-03-12T02:15:30.870Z,6.29
2023-03-12T02:18:03.529Z,5.94
2023-03-12T02:20:37.920Z,6.07
2023-03-12T02:23:11.394Z,6.58
2023-03-12T02:25:44.019Z,6.21
2023-03-12T02:28:15.940Z,4.80
2023-03-12T02:30:48.501Z,5.29
2023-03-12T02:33:19.583Z,5.81
2023-03-12T02:35:50.506Z,6.22
2023-03-12T02:38:34.554Z,6.17
2023-03-12T02:41:07.261Z,6.29
2023-03-12T02:43:38.141Z,6.59
2023-03-12T02:46:10.355Z,6.81
2023-03-12T02:48:41.517Z,6.17
2023-03-12T02:51:12.707Z,5.98
2023-03-12T02:53:43.590Z,6.30
2023-03-12T02:56:15.054Z,6.28
2023-03-12T02:58:47.867Z,6.52
2023-03-12T03:01:19.480Z,6.53
2023-03-12T03:03:50.333Z,6.37
2023-03-12T03:06:21.350Z,6.29
2023-03-12T03:08:52.041Z,6.32
2023-03-12T03:11:24.781Z,6.33
2023-03-12T03:13:57.457Z,6.54
2023-03-12T03:16:28.278Z,6.35
2023-03-12T03:18:58.921Z,5.99
2023-03-12T03:21:30.258Z,6.38
2023-03-12T03:24:01.416Z,6.47
2023-03-12T03:26:32.298Z,5.78
2023-03-12T03:29:02.825Z,5.98
2023-03-12T03:31:35.913Z,6.55
2023-03-12T03:34:09.371Z,5.86
2023-03-12T03:36:40.510Z,3.87
2023-03-12T03:39:15.032Z,4.71
2023-03-12T03:41:47.402Z,5.74
2023-03-12T03:44:18.735Z,6.01
2023-03-12T03:46:52.193Z,5.43
2023-03-12T03:49:22.860Z,4.96
2023-03-12T03:51:53.942Z,5.96
2023-03-12T03:54:36.244Z,6.48
2023-03-12T03:57:07.767Z,5.20
2023-03-12T03:59:38.777Z,4.39
2023-03-12T04:02:09.745Z,4.90
2023-03-12T04:04:41.912Z,5.95
2023-03-12T04:07:13.269Z,6.64
2023-03-12T04:09:45.110Z,6.50
2023-03-12T04:12:16.258Z,6.29
2023-03-12T04:14:47.015Z,6.55
2023-03-12T04:17:18.360Z,6.33
2023-03-12T04:19:49.764Z,6.49
2023-03-12T04:22:21.232Z,6.35
2023-03-12T04:24:51.964Z,6.36
2023-03-12T04:27:23.516Z,6.59
2023-03-12T04:29:54.548Z,7.01
2023-03-12T04:32:26.009Z,6.54
2023-03-12T04:34:56.947Z,5.25
2023-03-12T04:37:28.148Z,5.49
2023-03-12T04:39:58.722Z,5.95
2023-03-12T04:42:30.276Z,6.63
2023-03-12T04:45:01.144Z,6.68
2023-03-12T04:47:35.381Z,6.58
2023-03-12T04:50:07.283Z,6.57
2023-03-12T04:52:42.018Z,6.41
2023-03-12T04:55:13.203Z,6.64
2023-03-12T04:57:44.443Z,6.07
2023-03-12T05:00:17.715Z,5.31
2023-03-12T05:02:50.627Z,5.95
2023-03-12T05:05:22.711Z,5.89
2023-03-12T05:07:53.936Z,5.89
2023-03-12T05:10:24.934Z,6.05
2023-03-12T05:12:55.987Z,6.41
2023-03-12T05:15:26.999Z,6.74
2023-03-12T05:17:58.364Z,6.16
2023-03-12T05:20:29.304Z,5.73
2023-03-12T05:23:00.453Z,5.71
2023-03-12T05:25:31.405Z,6.37
2023-03-12T05:28:02.832Z,5.78
2023-03-12T05:30:33.673Z,5.73
2023-03-12T05:33:04.912Z,5.71
2023-03-12T05:35:35.997Z,5.67
2023-03-12T05:38:07.199Z,6.05
2023-03-12T05:40:37.938Z,6.53
2023-03-12T05:43:09.785Z,6.45
2023-03-12T05:45:41.357Z,6.25
2023-03-12T05:48:12.613Z,5.34
2023-03-12T05:50:43.864Z,5.27
2023-03-12T05:53:17.337Z,5.58
2023-03-12T05:55:49.860Z,4.96
2023-03-12T05:58:21.048Z,5.00
2023-03-12T06:00:55.318Z,5.66
2023-03-12T06:03:27.433Z,5.52
2023-03-12T06:05:59.788Z,4.76
2023-03-12T06:08:31.558Z,5.40
2023-03-12T06:11:02.664Z,5.92
2023-03-12T06:13:37.427Z,4.48
2023-03-12T06:16:09.626Z,5.46
2023-03-12T06:18:41.447Z,4.29
2023-03-12T06:21:14.765Z,4.47
2023-03-12T06:23:49.614Z,5.62
2023-03-12T06:26:27.856Z,4.46
2023-03-12T06:28:59.020Z,5.16
2023-03-12T06:31:29.897Z,3.97
2023-03-12T06:34:03.907Z,3.60
2023-03-12T06:36:34.710Z,4.33
2023-03-12T06:39:08.743Z,4.39
2023-03-12T06:41:40.809Z,3.24
2023-03-12T06:44:11.620Z,2.53
2023-03-12T06:46:44.475Z,4.28
2023-03-12T06:49:15.997Z,3.40
2023-03-12T06:51:51.088Z,4.00
2023-03-12T06:54:22.181Z,3.38
2023-03-12T06:56:53.308Z,4.32
2023-03-12T06:59:24.384Z,3.18
2023-03-12T07:01:54.998Z,2.99
2023-03-12T07:04:26.192Z,4.50
2023-03-12T07:06:57.136Z,3.86
2023-03-12T07:09:28.266Z,2.86
2023-03-12T07:11:58.794Z,4.16
2023-03-12T07:14:30.514Z,3.61
2023-03-12T07:17:02.130Z,2.97
2023-03-12T07:19:33.157Z,3.60
2023-03-12T07:22:04.203Z,2.86
2023-03-12T07:24:35.554Z,4.18
2023-03-12T07:27:06.691Z,4.25
2023-03-12T07:29:37.618Z,2.83
2023-03-12T07:32:11.243Z,3.08
2023-03-12T07:34:42.672Z,3.64
2023-03-12T07:37:13.824Z,2.75
2023-03-12T07:39:45.564Z,3.53
2023-03-12T07:42:16.263Z,3.87
2023-03-12T07:44:48.598Z,2.93
2023-03-12T07:47:24.211Z,3.48
2023-03-12T07:50:01.440Z,3.81
2023-03-12T07:52:34.803Z,2.92
2023-03-12T07:55:06.067Z,2.41
2023-03-12T07:57:36.837Z,3.45
2023-03-12T08:00:11.226Z,3.18
2023-03-12T08:02:43.195Z,2.66
2023-03-12T08:05:14.422Z,2.94
2023-03-12T08:07:46.533Z,3.50
2023-03-12T08:10:18.188Z,2.79
2023-03-12T08:12:49.147Z,2.43
2023-03-12T08:15:20.672Z,3.57
2023-03-12T08:17:53.559Z,3.86
2023-03-12T08:20:24.733Z,3.36
2023-03-12T08:22:58.425Z,2.80
2023-03-12T08:25:30.819Z,2.49
2023-03-12T08:28:01.563Z,2.36
2023-03-12T08:30:33.929Z,3.41
2023-03-12T08:33:04.763Z,4.11
2023-03-12T08:35:36.160Z,3.45
2023-03-12T08:38:07.077Z,2.99
2023-03-12T08:40:38.835Z,2.84
2023-03-12T08:43:09.625Z,2.68
2023-03-12T08:45:40.507Z,2.62
2023-03-12T08:48:11.817Z,2.63
2023-03-12T08:50:43.161Z,2.57
2023-03-12T08:53:14.071Z,2.48
2023-03-12T08:55:46.286Z,2.52
2023-03-12T08:58:20.093Z,2.59
2023-03-12T09:00:51.075Z,2.68
2023-03-12T09:03:22.401Z,2.80
2023-03-12T09:05:53.905Z,2.77
2023-03-12T09:08:24.640Z,2.72
2023-03-12T09:10:55.791Z,2.73
2023-03-12T09:13:36.632Z,2.85
2023-03-12T09:16:18.546Z,2.91
2023-03-12T09:18:49.487Z,2.90
2023-03-12T09:21:20.549Z,2.88
2023-03-12T09:23:51.303Z,2.87
2023-03-12T09:26:24.259Z,2.86
2023-03-12T09:28:55.381Z,2.87
2023-03-12T09:31:26.332Z,2.91
2023-03-12T09:33:57.072Z,3.04
2023-03-12T09:36:28.201Z,3.08
2023-03-12T09:38:58.826Z,3.07
2023-03-12T09:41:31.235Z,3.10
2023-03-12T09:44:07.187Z,3.13
2023-03-12T09:46:40.121Z,3.21
2023-03-12T09:49:15.759Z,3.36
2023-03-12T09:51:47.739Z,3.43
2023-03-12T09:54:23.062Z,3.39
2023-03-12T09:56:54.006Z,3.37
2023-03-12T09:59:25.016Z,3.36
2023-03-12T10:02:01.240Z,3.53
2023-03-12T10:04:56.347Z,3.62
2023-03-12T10:07:33.020Z,3.64
2023-03-12T10:10:10.915Z,3.57
2023-03-12T10:12:48.817Z,3.47
2023-03-12T10:15:24.209Z,3.37
2023-03-12T10:18:02.214Z,3.38
2023-03-12T10:20:48.305Z,3.39
2023-03-12T10:23:23.693Z,3.38
2023-03-12T10:25:57.048Z,3.51
2023-03-12T10:28:30.959Z,3.64
2023-03-12T10:31:03.210Z,3.69
2023-03-12T10:33:40.473Z,3.61
2023-03-12T10:36:17.611Z,3.65
2023-03-12T10:38:50.041Z,3.77
2023-03-12T10:41:22.276Z,3.83
2023-03-12T10:43:53.225Z,3.82
2023-03-12T10:46:37.406Z,3.76
2023-03-12T10:49:21.868Z,3.77
2023-03-12T10:51:56.724Z,3.86
2023-03-12T10:54:31.145Z,4.02
2023-03-12T10:57:02.348Z,4.01
2023-03-12T10:59:34.898Z,4.08
2023-03-12T11:02:23.143Z,4.20
2023-03-12T11:04:54.753Z,4.38
2023-03-12T11:07:32.029Z,4.27
2023-03-12T11:10:17.902Z,4.26
2023-03-12T11:12:56.338Z,4.21
2023-03-12T11:15:28.644Z,4.23
2023-03-12T11:18:21.095Z,4.43
2023-03-12T11:20:54.480Z,4.57
2023-03-12T11:23:23.841Z,4.57
2023-03-12T11:25:56.818Z,4.53
2023-03-12T11:28:31.099Z,4.59
2023-03-12T11:31:02.682Z,4.40
2023-03-12T11:33:33.469Z,4.34
2023-03-12T11:36:18.242Z,4.31
2023-03-12T11:38:52.478Z,4.25
2023-03-12T11:41:30.459Z,4.20
2023-03-12T11:44:17.677Z,4.12
2023-03-12T11:46:53.881Z,4.34
2023-03-12T11:49:32.384Z,4.36
2023-03-12T11:52:06.130Z,4.36
2023-03-12T11:54:45.361Z,4.27
2023-03-12T11:57:20.907Z,4.39
2023-03-12T12:00:00.674Z,4.50
2023-03-12T12:02:53.390Z,4.64
2023-03-12T12:05:28.126Z,4.72
2023-03-12T12:08:05.504Z,4.81
2023-03-12T12:10:41.354Z,4.81
2023-03-12T12:13:19.017Z,4.84
2023-03-12T12:15:54.347Z,4.92
2023-03-12T12:18:36.332Z,4.88
2023-03-12T12:21:11.452Z,4.88
2023-03-12T12:23:47.412Z,4.90
2023-03-12T12:26:21.687Z,4.81
2023-03-12T12:28:56.259Z,4.84
2023-03-12T12:31:33.624Z,4.86
2023-03-12T12:34:23.012Z,4.93
2023-03-12T12:36:56.098Z,4.96
2023-03-12T12:39:31.594Z,4.97
2023-03-12T12:42:05.354Z,5.03
2023-03-12T12:44:34.502Z,5.09
2023-03-12T12:47:07.429Z,5.21
2023-03-12T12:49:43.210Z,5.16
2023-03-12T12:52:17.100Z,5.17
2023-03-12T12:54:52.830Z,5.26
2023-03-12T12:57:28.371Z,5.20
2023-03-12T13:00:05.276Z,5.26
2023-03-12T13:02:39.757Z,5.21
2023-03-12T13:05:21.518Z,5.08
2023-03-12T13:07:52.423Z,5.04
2023-03-12T13:10:48.396Z,5.07
2023-03-12T13:13:28.847Z,5.23
2023-03-12T13:16:13.706Z,5.42
2023-03-12T13:18:57.000Z,5.81
2023-03-12T13:21:30.042Z,6.07
2023-03-12T13:24:06.548Z,6.26
2023-03-12T13:26:47.423Z,6.25
2023-03-12T13:29:23.206Z,6.38
2023-03-12T13:31:53.948Z,6.52
2023-03-12T13:34:39.824Z,6.81
2023-03-12T13:37:19.865Z,7.07
2023-03-12T13:39:52.325Z,6.98
2023-03-12T13:42:36.389Z,7.11
2023-03-12T13:45:20.625Z,7.17
2023-03-12T13:47:53.608Z,7.26
2023-03-12T13:50:24.706Z,7.09
2023-03-12T13:53:03.368Z,7.57
2023-03-12T13:55:37.566Z,7.63
2023-03-12T13:58:10.309Z,7.79
2023-03-12T14:00:48.762Z,7.91
2023-03-12T14:03:21.507Z,7.95
2023-03-12T14:05:54.651Z,8.12
2023-03-12T14:08:36.757Z,8.10
2023-03-12T14:11:07.232Z,8.32
2023-03-12T14:13:48.066Z,8.30
2023-03-12T14:16:23.147Z,8.28
2023-03-12T14:18:54.463Z,8.16
2023-03-12T14:21:25.617Z,7.78
2023-03-12T14:23:57.939Z,7.37
2023-03-12T14:26:30.561Z,6.99
2023-03-12T14:29:03.141Z,6.73
2023-03-12T14:31:41.776Z,6.64
2023-03-12T14:34:20.824Z,6.62
2023-03-12T14:36:54.534Z,6.37
2023-03-12T14:39:28.551Z,6.36
2023-03-12T14:42:01.242Z,6.30
2023-03-12T14:44:32.715Z,6.16
2023-03-12T14:47:07.668Z,6.11
2023-03-12T14:49:42.654Z,6.22
2023-03-12T14:52:14.294Z,6.38
2023-03-12T14:54:55.668Z,6.33
2023-03-12T14:57:26.686Z,6.34
2023-03-12T15:00:01.086Z,6.18
2023-03-12T15:02:33.753Z,6.20
2023-03-12T15:05:06.171Z,6.10
2023-03-12T15:07:39.909Z,6.05
2023-03-12T15:10:19.425Z,6.07
2023-03-12T15:12:50.778Z,5.98
2023-03-12T15:15:36.374Z,6.05
2023-03-12T15:18:09.091Z,5.97
2023-03-12T15:20:42.422Z,5.92
2023-03-12T15:23:14.379Z,5.91
2023-03-12T15:25:45.443Z,5.91
2023-03-12T15:28:33.148Z,5.81
2023-03-12T15:31:08.466Z,5.72
2023-03-12T15:33:40.017Z,5.70
2023-03-12T15:36:25.111Z,5.68
2023-03-12T15:39:03.958Z,5.66
2023-03-12T15:41:44.070Z,5.65
2023-03-12T15:44:18.401Z,5.65
2023-03-12T15:46:51.812Z,5.57
2023-03-12T15:49:28.163Z,5.49
2023-03-12T15:52:11.487Z,5.46
2023-03-12T15:55:00.468Z,5.42
2023-03-12T15:57:35.310Z,5.42
2023-03-12T16:00:19.556Z,5.39
2023-03-12T16:02:52.220Z,5.40
2023-03-12T16:05:24.001Z,5.42
2023-03-12T16:07:55.453Z,5.41
2023-03-12T16:10:29.334Z,5.44
2023-03-12T16:13:05.286Z,5.44
2023-03-12T16:15:39.803Z,5.46
2023-03-12T16:18:14.442Z,5.46
2023-03-12T16:20:45.748Z,5.41
2023-03-12T16:23:19.477Z,5.36
2023-03-12T16:25:51.587Z,5.33
2023-03-12T16:28:23.521Z,5.33
2023-03-12T16:30:56.915Z,5.23
2023-03-12T16:33:37.116Z,5.15
2023-03-12T16:36:14.000Z,5.09
2023-03-12T16:38:48.253Z,4.98
2023-03-12T16:41:20.659Z,4.99
2023-03-12T16:43:54.131Z,4.94
2023-03-12T16:46:25.518Z,4.88
2023-03-12T16:48:56.698Z,4.77
2023-03-12T16:51:28.531Z,4.70
2023-03-12T16:54:09.519Z,4.64
2023-03-12T16:56:44.261Z,4.61
2023-03-12T16:59:19.131Z,4.58
2023-03-12T17:01:49.898Z,4.55
2023-03-12T17:04:21.267Z,4.51
2023-03-12T17:06:51.895Z,4.48
2023-03-12T17:09:23.435Z,4.45
2023-03-12T17:12:01.377Z,4.42
2023-03-12T17:14:34.897Z,4.40
2023-03-12T17:17:12.502Z,4.36
2023-03-12T17:19:43.553Z,4.32
2023-03-12T17:22:14.758Z,4.29
2023-03-12T17:24:50.402Z,4.27
2023-03-12T17:27:21.532Z,4.27
2023-03-12T17:29:52.506Z,4.26
2023-03-12T17:32:26.577Z,4.25
2023-03-12T17:35:03.866Z,4.23
2023-03-12T17:37:34.847Z,4.21
2023-03-12T17:40:09.448Z,4.22
2023-03-12T17:42:40.888Z,4.22
2023-03-12T17:45:15.510Z,4.22
2023-03-12T17:47:46.646Z,4.20
2023-03-12T17:50:17.866Z,4.18
2023-03-12T17:52:49.285Z,4.17
2023-03-12T17:55:20.964Z,4.12
2023-03-12T17:57:51.846Z,4.12
2023-03-12T18:00:23.401Z,4.10
2023-03-12T18:02:54.448Z,4.07
2023-03-12T18:05:26.094Z,4.04
2023-03-12T18:07:57.021Z,4.01
2023-03-12T18:10:28.120Z,3.97
2023-03-12T18:12:58.953Z,3.96
2023-03-12T18:15:30.220Z,3.93
2023-03-12T18:18:03.048Z,3.91
2023-03-12T18:20:39.390Z,3.88
2023-03-12T18:23:10.700Z,3.87
2023-03-12T18:25:42.113Z,3.83
2023-03-12T18:28:14.373Z,3.81
2023-03-12T18:30:47.965Z,3.79
2023-03-12T18:33:18.940Z,3.77
2023-03-12T18:35:54.585Z,3.75
2023-03-12T18:38:25.651Z,3.72
2023-03-12T18:41:02.890Z,3.69
2023-03-12T18:43:34.023Z,3.66
2023-03-12T18:46:06.295Z,3.65
2023-03-12T18:48:37.345Z,3.63
2023-03-12T18:51:09.130Z,3.62
2023-03-12T18:53:40.561Z,3.60
2023-03-12T18:56:12.191Z,3.58
2023-03-12T18:58:43.040Z,3.58
2023-03-12T19:01:19.415Z,3.58
2023-03-12T19:03:50.762Z,3.58
2023-03-12T19:06:21.913Z,3.58
2023-03-12T19:08:52.847Z,3.58
2023-03-12T19:11:23.969Z,3.60
2023-03-12T19:13:54.805Z,3.60
2023-03-12T19:16:25.979Z,3.58
2023-03-12T19:18:57.188Z,3.56
2023-03-12T19:21:28.650Z,3.54
2023-03-12T19:23:59.467Z,3.51
2023-03-12T19:26:32.112Z,3.48
2023-03-12T19:29:02.983Z,3.45
2023-03-12T19:31:34.916Z,3.42
2023-03-12T19:34:05.824Z,3.40
2023-03-12T19:36:37.255Z,3.37
2023-03-12T19:39:15.257Z,3.36
2023-03-12T19:41:52.060Z,3.34
2023-03-12T19:44:22.846Z,3.33
2023-03-12T19:46:54.201Z,3.32
2023-03-12T19:49:25.300Z,3.30
2023-03-12T19:51:56.580Z,3.29
2023-03-12T19:54:27.518Z,3.29
2023-03-12T19:56:58.888Z,3.29
2023-03-12T19:59:29.655Z,3.28
2023-03-12T20:02:01.912Z,3.28
2023-03-12T20:04:32.706Z,3.29
2023-03-12T20:07:03.580Z,3.30
2023-03-12T20:09:34.884Z,3.31
2023-03-12T20:12:07.541Z,3.32
2023-03-12T20:14:42.832Z,3.32
2023-03-12T20:17:16.509Z,3.34
2023-03-12T20:19:47.551Z,3.35
2023-03-12T20:22:19.043Z,3.36
2023-03-12T20:24:50.050Z,3.38
2023-03-12T20:27:24.072Z,3.40
2023-03-12T20:29:57.541Z,3.42
2023-03-12T20:32:29.166Z,3.43
2023-03-12T20:35:00.152Z,3.44
2023-03-12T20:37:31.141Z,3.45
2023-03-12T20:40:01.951Z,3.47
2023-03-12T20:42:33.184Z,3.47
2023-03-12T20:45:03.889Z,3.48
2023-03-12T20:47:35.047Z,3.49
2023-03-12T20:50:06.718Z,3.51
2023-03-12T20:52:40.303Z,3.52
2023-03-12T20:55:11.596Z,3.52
2023-03-12T20:57:44.208Z,3.52
2023-03-12T21:00:15.721Z,3.51
2023-03-12T21:02:47.229Z,3.52
2023-03-12T21:05:22.746Z,3.51
2023-03-12T21:07:58.779Z,3.52
2023-03-12T21:10:31.560Z,3.53
2023-03-12T21:13:02.856Z,3.55
2023-03-12T21:15:34.053Z,3.55
2023-03-12T21:18:05.581Z,3.56
2023-03-12T21:20:37.726Z,3.57
2023-03-12T21:23:10.157Z,3.59
2023-03-12T21:25:42.208Z,3.60
2023-03-12T21:28:13.697Z,3.62
2023-03-12T21:30:44.879Z,3.63
2023-03-12T21:33:15.938Z,3.65
2023-03-12T21:35:47.497Z,3.66
2023-03-12T21:38:18.555Z,3.67
2023-03-12T21:40:51.147Z,3.68
2023-03-12T21:43:22.095Z,3.69
2023-03-12T21:45:53.067Z,3.69
2023-03-12T21:48:24.370Z,3.70
2023-03-12T21:50:55.480Z,3.71
2023-03-12T21:53:26.492Z,3.71
2023-03-12T21:55:58.157Z,3.72
2023-03-12T21:58:32.792Z,3.73
2023-03-12T22:01:08.466Z,3.74
2023-03-12T22:03:40.789Z,3.74
2023-03-12T22:06:12.930Z,3.75
2023-03-12T22:08:44.522Z,3.76
2023-03-12T22:11:15.770Z,3.78
2023-03-12T22:13:47.077Z,3.78
2023-03-12T22:16:18.024Z,3.79
2023-03-12T22:18:49.576Z,3.80
2023-03-12T22:21:24.089Z,3.80
2023-03-12T22:23:57.913Z,3.81
2023-03-12T22:26:29.136Z,3.81
2023-03-12T22:29:01.601Z,3.81
2023-03-12T22:31:32.580Z,3.81
2023-03-12T22:34:03.711Z,3.82
2023-03-12T22:36:34.848Z,3.82
2023-03-12T22:39:06.192Z,3.83
2023-03-12T22:41:36.943Z,3.84
2023-03-12T22:44:09.576Z,3.84
2023-03-12T22:46:43.117Z,3.86
2023-03-12T22:49:12.945Z,3.88
2023-03-12T22:51:43.889Z,3.89
2023-03-12T22:54:14.801Z,3.90
2023-03-12T22:56:45.764Z,3.92
2023-03-12T22:59:16.740Z,3.93
2023-03-12T23:01:47.623Z,3.95
2023-03-12T23:04:18.855Z,3.96
2023-03-12T23:06:50.064Z,3.97
2023-03-12T23:09:21.421Z,3.97
2023-03-12T23:11:55.710Z,3.98
2023-03-12T23:14:27.692Z,3.97
2023-03-12T23:16:59.624Z,3.96
2023-03-12T23:19:33.493Z,3.94
2023-03-12T23:22:04.923Z,3.92
2023-03-12T23:24:36.192Z,3.92
2023-03-12T23:27:07.307Z,3.93
2023-03-12T23:29:38.964Z,3.93
2023-03-12T23:32:10.151Z,3.93
2023-03-12T23:34:41.832Z,3.90
2023-03-12T23:37:13.052Z,3.89
2023-03-12T23:39:54.552Z,3.87
2023-03-12T23:42:27.731Z,3.85
